This is the latest recevied weather packets stored in our database for station/object SQ7IQO. If no packets are shown the sender has not sent any weather packets the latest 10 day(s).
| Time | Temp. | Humidity | Pressure | Rain* | Wind** | Luminosity | Snow |
|---|---|---|---|---|---|---|---|
| 1787937340 | 21.67° C | 50% | 1016 hPa | 0 mm | 0 m/s | - | - |
| 1787937280 | 21.67° C | 49% | 1016 hPa | 0 mm | 0 m/s | - | - |
| 1787937220 | 21.67° C | 50% | 1016 hPa | 0 mm | 0 m/s | - | - |
| 1787937160 | 21.67° C | 50% | 1016 hPa | 0 mm | 0 m/s | - | - |
| 1787937100 | 21.67° C | 52% | 1255.8 hPa | 0 mm | 0.89 m/s, ° | - | - |
| 1787937040 | 21.67° C | 51% | 1016 hPa | 0 mm | 0 m/s | - | - |
| 1787936980 | 21.67° C | 51% | 1016.1 hPa | 0 mm | 0 m/s | - | - |
| 1787936920 | 21.67° C | 51% | 1016.1 hPa | 0 mm | 0 m/s | - | - |
| 1787936860 | 21.67° C | 51% | 1016.1 hPa | 0 mm | 0 m/s | - | - |
| 1787936800 | 21.67° C | 50% | 1016.1 hPa | 0 mm | 0 m/s | - | - |
| 1787936740 | 21.67° C | 50% | 1016.1 hPa | 0 mm | 0 m/s | - | - |
| 1787936680 | 21.67° C | 51% | 1016.1 hPa | 0 mm | 0 m/s | - | - |
| 1787936620 | 21.67° C | 52% | 1016.1 hPa | 0 mm | 0.89 m/s, ° | - | - |
| 1787936560 | 21.67° C | 51% | 1016 hPa | 0 mm | 0 m/s | - | - |
| 1787936500 | 21.67° C | 50% | 1016 hPa | 0 mm | 0 m/s | - | - |
| 1787936440 | 21.67° C | 50% | 1016.1 hPa | 0 mm | 0 m/s | - | - |
| 1787936380 | 21.67° C | 51% | 1016.1 hPa | 0 mm | 0 m/s | - | - |
| 1787936320 | 21.67° C | 52% | 1057.1 hPa | 0 mm | 0 m/s | - | - |
| 1787936260 | 21.67° C | 52% | 1280.6 hPa | 0 mm | 0 m/s | - | - |
| 1787936200 | 21.67° C | 50% | 1016.1 hPa | 0 mm | 0 m/s | - | - |
| 1787936140 | 21.67° C | 50% | 1016.1 hPa | 0 mm | 0 m/s | - | - |
| 1787936080 | 21.67° C | 51% | 1016 hPa | 0 mm | 0 m/s | - | - |
| 1787936020 | 21.11° C | 52% | 1016.1 hPa | 0 mm | 0 m/s | - | - |
| 1787935960 | 21.67° C | 52% | 1015.3 hPa | 0 mm | 0 m/s | - | - |
| 1787935900 | 21.11° C | 55% | 1016.1 hPa | 0 mm | 0 m/s | - | - |
* Rain latest hour (hover to see other rain measurements)
** Current wind speed in m/s (hover to see current wind gust speed)